Flight Track Log - Related Links

Times and Time Zones

All times are in EDT time to prevent confusion due to time zone crossing. See the KAP528 flight status page for this flight to view local times or setup timezone preferences in your user account.

Time Position Orientation Groundspeed Altitude Reporting Facility
EDT Latitude Longitude Course Direction KTS MPH feet Rate Location/Type
Tue 05:22:48 PM 42.3833 -71.0000 270° West 122 140 400  Level KA90
Tue 05:23:42 PM 42.4000 -71.0333 304° West 118 136 1,100 621 Climbing KA90
Tue 05:24:44 PM 42.4000 -71.0833 270° West 120 138 1,600 500 Climbing KA90
Tue 05:25:42 PM 42.4000 -71.1333 270° West 128 147 2,100 508 Climbing KA90
Tue 05:26:42 PM 42.4000 -71.1667 270° West 122 140 2,600 550 Climbing KA90
Tue 05:27:42 PM 42.3833 -71.2167 246° West 124 143 3,200 496 Climbing KA90
Tue 05:28:00 PM 42.3167 -71.2958 270° West  Level FlightAware Approximate
Tue 05:28:43 PM 42.3833 -71.2667 270° West 121 139 3,600  Level KA90
Tue 05:29:43 PM 42.3667 -71.3167 246° West 128 147 4,100 496 Climbing KA90
Tue 05:30:44 PM 42.3667 -71.3667 270° West 130 150 4,600 450 Climbing KA90
Tue 05:31:03 PM 42.3539 -71.3808 219° Southwest 129 148 4,700 486 Climbing Boston Center
Tue 05:31:58 PM 42.3417 -71.4233 249° West 133 153 5,200 517 Climbing Boston Center
Tue 05:32:59 PM 42.3339 -71.4739 258° West 135 155 5,700 469 Climbing Boston Center
Tue 05:34:06 PM 42.3217 -71.5303 254° West 135 155 6,200 422 Climbing Boston Center
Tue 05:35:07 PM 42.3097 -71.5811 252° West 139 160 6,600 189 Climbing Boston Center
Tue 05:36:13 PM 42.3081 -71.6428 268° West 153 176 6,600 -50 Level Boston Center
Tue 05:37:08 PM 42.3147 -71.7017 279° West 173 199 6,500 -52 Descending Boston Center
Tue 05:38:09 PM 42.3297 -71.7606 289° West 167 192 6,500 49 Level Boston Center
Tue 05:39:10 PM 42.3425 -71.8250 285° West 159 183 6,600 49 Climbing Boston Center
Tue 05:40:11 PM 42.3531 -71.8811 284° West 154 177 6,600  Level Boston Center
Tue 05:41:11 PM 42.3639 -71.9342 285° West 155 178 6,600  Level Boston Center
Tue 05:42:06 PM 42.3744 -71.9875 285° West 156 180 6,600  Level Boston Center
Tue 05:43:13 PM 42.3872 -72.0467 286° West 155 178 6,600  Level Boston Center
Tue 05:44:08 PM 42.3978 -72.1028 284° West 162 186 6,600  Level Boston Center
Tue 05:45:33 PM 42.4167 -72.1842 287° West 162 186 6,600  Level Boston Center
Tue 05:46:27 PM 42.4272 -72.2347 286° West 161 185 6,600  Level Boston Center
Tue 05:47:16 PM 42.4378 -72.2853 286° West 163 188 6,600  Level Boston Center
Tue 05:48:23 PM 42.4503 -72.3472 285° West 163 188 6,600  Level Boston Center
Tue 05:49:23 PM 42.4650 -72.4092 288° West 162 186 6,600  Level Boston Center
Tue 05:50:24 PM 42.4756 -72.4683 284° West 164 189 6,600  Level Boston Center
Tue 05:51:25 PM 42.4878 -72.5275 286° West 162 186 6,600  Level Boston Center
Tue 05:52:19 PM 42.4983 -72.5753 287° West 161 185 6,600  Level Boston Center
Tue 05:53:20 PM 42.5106 -72.6400 284° West 164 189 6,600  Level Boston Center
Tue 05:54:26 PM 42.5250 -72.7078 286° West 168 193 6,600 -48 Level Boston Center
Tue 05:55:24 PM 42.5417 -72.7642 292° West 169 194 6,500 -73 Descending Boston Center
Tue 05:55:48 PM 42.5458 -72.7867 284° West 168 193 6,500  Level Boston Center
Tue 05:56:55 PM 42.5600 -72.8600 285° West 168 193 6,500 47 Level Boston Center
Tue 05:57:56 PM 42.5725 -72.9194 286° West 164 189 6,600  Climbing Boston Center
Tue 05:58:57 PM 42.5847 -72.9758 286° West 158 182 6,500 -47 Descending Boston Center
Tue 06:00:03 PM 42.5967 -73.0408 284° West 161 185 6,500  Level Boston Center
Tue 06:01:04 PM 42.6089 -73.1031 285° West 163 188 6,500 49 Level Boston Center
Tue 06:02:05 PM 42.6233 -73.1594 289° West 161 185 6,600  Climbing Boston Center
Tue 06:03:11 PM 42.6333 -73.2247 282° West 163 188 6,500  Descending Boston Center
Tue 06:04:12 PM 42.6453 -73.2842 285° West 163 188 6,600 -94 Climbing Boston Center
Tue 06:05:19 PM 42.6614 -73.3519 288° West 166 191 6,300 -466 Descending Boston Center
Tue 06:05:55 PM 42.6672 -73.3944 281° West 178 205 5,800 -716 Descending Boston Center
Tue 06:07:08 PM 42.6917 -73.4739 293° West 200 230 5,000 -716 Descending Boston Center
Tue 06:08:09 PM 42.7139 -73.5422 294° West 199 229 4,200 -934 Descending Boston Center
Tue 06:09:10 PM 42.7361 -73.6189 292° West 199 229 3,100 -1,211 Descending Boston Center
Tue 06:09:58 PM 42.7500 -73.6700 290° West 192 221 2,000 -991 Descending Boston Center
Tue 06:10:59 PM 42.7517 -73.7322 272° West 158 182 1,300 -738 Descending Boston Center
Tue 06:12:00 PM 42.7489 -73.7858 266° West 135 155 500 -787 Descending Boston Center
Tue 06:14:00 PM 42.7333 -73.8000 299° West  Level FlightAware Approximate
Tue 06:21:00 PM 42.7491 -73.8020 299° West  Level Estimated
Tue 06:22:00 PM 42.7491 -73.8020 299° West  Level Estimated
Tue 06:23:00 PM 42.7491 -73.8020 299° West  Level Estimated

Login

Don't have an account? Register now (free) for customized features, flight alerts, and more!